Time,TemperatureF,DewpointF,PressureIn,WindDirection,WindDirectionDegrees,WindSpeedMPH,WindSpeedGustMPH,Humidity,HourlyPrecipIn,Conditions,Clouds,dailyrainin,SoftwareType,DateUTC
2013-05-27 00:13:00,57.8,40.0,30.21,South,189,0.0,1.0,51,0.00,,,0.00,weatherlink.com 1.10,2013-05-27 04:13:00,
2013-05-27 00:28:00,57.5,39.0,30.21,South,190,0.0,2.0,51,0.00,,,0.00,weatherlink.com 1.10,2013-05-27 04:28:00,
2013-05-27 00:43:00,57.0,39.0,30.21,East,83,1.0,2.0,51,0.00,,,0.00,weatherlink.com 1.10,2013-05-27 04:43:00,
2013-05-27 00:58:00,56.4,39.0,30.21,ESE,107,0.0,2.0,52,0.00,,,0.00,weatherlink.com 1.10,2013-05-27 04:58:00,
2013-05-27 01:13:00,56.4,39.0,30.21,SSE,150,0.0,2.0,52,0.00,,,0.00,weatherlink.com 1.10,2013-05-27 05:13:00,
2013-05-27 01:28:00,56.2,39.0,30.20,ESE,115,1.0,3.0,52,0.00,,,0.00,weatherlink.com 1.10,2013-05-27 05:28:00,
2013-05-27 01:43:00,56.2,39.0,30.20,East,82,1.0,6.0,52,0.00,,,0.00,weatherlink.com 1.10,2013-05-27 05:43:00,
2013-05-27 01:58:00,55.8,38.0,30.20,East,89,0.0,2.0,52,0.00,,,0.00,weatherlink.com 1.10,2013-05-27 05:58:00,
2013-05-27 02:13:00,55.5,39.0,30.20,SSW,210,0.0,2.0,54,0.00,,,0.00,weatherlink.com 1.10,2013-05-27 06:13:00,
2013-05-27 02:29:00,55.3,39.0,30.19,East,87,0.0,3.0,55,0.00,,,0.00,weatherlink.com 1.10,2013-05-27 06:29:00,
2013-05-27 02:44:00,55.0,39.0,30.19,ENE,73,0.0,4.0,56,0.00,,,0.00,weatherlink.com 1.10,2013-05-27 06:44:00,
2013-05-27 02:59:00,54.7,40.0,30.18,ESE,122,0.0,3.0,57,0.00,,,0.00,weatherlink.com 1.10,2013-05-27 06:59:00,
2013-05-27 03:14:00,54.3,40.0,30.18,East,81,0.0,3.0,59,0.00,,,0.00,weatherlink.com 1.10,2013-05-27 07:14:00,
2013-05-27 03:29:00,53.7,40.0,30.19,East,97,0.0,2.0,60,0.00,,,0.00,weatherlink.com 1.10,2013-05-27 07:29:00,
2013-05-27 03:44:00,53.3,40.0,30.19,East,92,0.0,2.0,62,0.00,,,0.00,weatherlink.com 1.10,2013-05-27 07:44:00,
2013-05-27 03:59:00,52.8,40.0,30.19,ESE,114,0.0,0.0,63,0.00,,,0.00,weatherlink.com 1.10,2013-05-27 07:59:00,
2013-05-27 04:14:00,52.3,41.0,30.18,East,100,0.0,1.0,65,0.00,,,0.00,weatherlink.com 1.10,2013-05-27 08:14:00,
2013-05-27 04:29:00,51.7,41.0,30.18,East,97,0.0,0.0,66,0.00,,,0.00,weatherlink.com 1.10,2013-05-27 08:29:00,
2013-05-27 04:44:00,51.3,41.0,30.17,ESE,121,0.0,2.0,67,0.00,,,0.00,weatherlink.com 1.10,2013-05-27 08:44:00,
2013-05-27 04:59:00,51.0,41.0,30.17,ESE,118,0.0,1.0,68,0.00,,,0.00,weatherlink.com 1.10,2013-05-27 08:59:00,
2013-05-27 05:14:00,50.8,41.0,30.17,East,79,0.0,1.0,69,0.00,,,0.00,weatherlink.com 1.10,2013-05-27 09:14:00,
2013-05-27 05:29:00,50.5,41.0,30.17,North,360,0.0,0.0,69,0.00,,,0.00,weatherlink.com 1.10,2013-05-27 09:29:00,
2013-05-27 05:44:00,50.2,41.0,30.17,North,1,0.0,0.0,70,0.00,,,0.00,weatherlink.com 1.10,2013-05-27 09:44:00,
2013-05-27 05:59:00,50.5,41.0,30.16,SE,127,0.0,0.0,70,0.00,,,0.00,weatherlink.com 1.10,2013-05-27 09:59:00,
2013-05-27 06:14:00,50.9,41.0,30.16,East,90,0.0,2.0,69,0.00,,,0.00,weatherlink.com 1.10,2013-05-27 10:14:00,
2013-05-27 06:29:00,51.6,41.0,30.16,SE,132,0.0,2.0,67,0.00,,,0.00,weatherlink.com 1.10,2013-05-27 10:29:00,
2013-05-27 06:44:00,52.3,41.0,30.17,ESE,110,1.0,2.0,66,0.00,,,0.00,weatherlink.com 1.10,2013-05-27 10:44:00,
2013-05-27 06:59:00,52.8,41.0,30.17,ESE,103,1.0,2.0,65,0.00,,,0.00,weatherlink.com 1.10,2013-05-27 10:59:00,
2013-05-27 07:14:00,53.2,41.0,30.17,ESE,112,0.0,3.0,64,0.00,,,0.00,weatherlink.com 1.10,2013-05-27 11:14:00,
2013-05-27 07:29:00,53.6,41.0,30.17,ESE,118,0.0,3.0,63,0.00,,,0.00,weatherlink.com 1.10,2013-05-27 11:29:00,
2013-05-27 07:44:00,54.2,41.0,30.16,SE,141,0.0,2.0,62,0.00,,,0.00,weatherlink.com 1.10,2013-05-27 11:44:00,
2013-05-27 07:59:00,55.3,41.0,30.16,East,85,0.0,4.0,60,0.00,,,0.00,weatherlink.com 1.10,2013-05-27 11:59:00,
2013-05-27 08:14:00,56.3,42.0,30.16,East,79,0.0,3.0,59,0.00,,,0.00,weatherlink.com 1.10,2013-05-27 12:14:00,
2013-05-27 08:29:00,57.1,41.0,30.16,East,94,2.0,4.0,56,0.00,,,0.00,weatherlink.com 1.10,2013-05-27 12:29:00,
2013-05-27 08:44:00,57.3,42.0,30.16,East,82,1.0,5.0,57,0.00,,,0.00,weatherlink.com 1.10,2013-05-27 12:44:00,
2013-05-27 08:59:00,57.6,42.0,30.16,NNE,26,5.0,5.0,57,0.00,,,0.00,weatherlink.com 1.10,2013-05-27 12:59:00,
2013-05-27 09:14:00,57.6,42.0,30.16,East,92,1.0,5.0,56,0.00,,,0.00,weatherlink.com 1.10,2013-05-27 13:14:00,
2013-05-27 09:29:00,58.1,42.0,30.16,SE,127,2.0,4.0,55,0.00,,,0.00,weatherlink.com 1.10,2013-05-27 13:29:00,
2013-05-27 09:44:00,58.3,41.0,30.16,ENE,78,1.0,5.0,54,0.00,,,0.00,weatherlink.com 1.10,2013-05-27 13:44:00,
2013-05-27 09:59:00,58.5,41.0,30.15,SSW,201,1.0,5.0,53,0.00,,,0.00,weatherlink.com 1.10,2013-05-27 13:59:00,
2013-05-27 10:14:00,58.9,42.0,30.15,ESE,113,0.0,7.0,54,0.00,,,0.00,weatherlink.com 1.10,2013-05-27 14:14:00,
2013-05-27 10:30:00,59.2,43.0,30.14,SE,137,2.0,5.0,55,0.00,,,0.00,weatherlink.com 1.10,2013-05-27 14:30:00,
2013-05-27 10:45:00,58.9,42.0,30.13,NE,48,3.0,7.0,54,0.00,,,0.00,weatherlink.com 1.10,2013-05-27 14:45:00,
2013-05-27 11:00:00,59.0,43.0,30.13,East,85,1.0,5.0,55,0.00,,,0.00,weatherlink.com 1.10,2013-05-27 15:00:00,
2013-05-27 11:15:00,59.3,43.0,30.12,SSE,158,3.0,8.0,55,0.00,,,0.00,weatherlink.com 1.10,2013-05-27 15:15:00,
2013-05-27 11:30:00,59.5,44.0,30.12,WSW,256,7.0,7.0,56,0.00,,,0.00,weatherlink.com 1.10,2013-05-27 15:30:00,
2013-05-27 11:45:00,59.3,44.0,30.12,SE,145,2.0,10.0,57,0.00,,,0.00,weatherlink.com 1.10,2013-05-27 15:45:00,
2013-05-27 12:00:00,59.0,44.0,30.12,ENE,65,4.0,8.0,58,0.00,,,0.00,weatherlink.com 1.10,2013-05-27 16:00:00,
2013-05-27 12:15:00,59.3,45.0,30.11,SSE,156,2.0,6.0,59,0.00,,,0.00,weatherlink.com 1.10,2013-05-27 16:15:00,
2013-05-27 12:30:00,59.1,45.0,30.11,East,82,5.0,7.0,59,0.00,,,0.00,weatherlink.com 1.10,2013-05-27 16:30:00,
2013-05-27 12:45:00,57.4,46.0,30.12,East,84,2.0,12.0,66,0.00,,,0.00,weatherlink.com 1.10,2013-05-27 16:45:00,
2013-05-27 13:00:00,57.4,46.0,30.11,ENE,77,0.0,5.0,67,0.00,,,0.00,weatherlink.com 1.10,2013-05-27 17:00:00,
2013-05-27 13:15:00,57.4,47.0,30.12,East,100,5.0,11.0,69,0.00,,,0.00,weatherlink.com 1.10,2013-05-27 17:15:00,
2013-05-27 13:30:00,55.9,47.0,30.12,ESE,114,2.0,10.0,73,0.00,,,0.00,weatherlink.com 1.10,2013-05-27 17:30:00,
2013-05-27 13:45:00,54.3,48.0,30.12,SE,126,5.0,6.0,78,0.00,,,0.00,weatherlink.com 1.10,2013-05-27 17:45:00,
2013-05-27 14:00:00,53.0,46.0,30.12,East,86,1.0,6.0,78,0.00,,,0.00,weatherlink.com 1.10,2013-05-27 18:00:00,
2013-05-27 14:15:00,52.8,46.0,30.11,East,95,0.0,5.0,77,0.00,,,0.00,weatherlink.com 1.10,2013-05-27 18:15:00,
2013-05-27 14:30:00,52.8,45.0,30.11,East,91,2.0,8.0,76,0.01,,,0.01,weatherlink.com 1.10,2013-05-27 18:30:00,
2013-05-27 14:45:00,52.6,45.0,30.10,ENE,78,0.0,3.0,76,0.01,,,0.01,weatherlink.com 1.10,2013-05-27 18:45:00,
2013-05-27 15:00:00,52.8,45.0,30.09,SSW,207,3.0,11.0,76,0.01,,,0.01,weatherlink.com 1.10,2013-05-27 19:00:00,
2013-05-27 15:15:00,52.8,45.0,30.09,NE,43,2.0,6.0,76,0.01,,,0.01,weatherlink.com 1.10,2013-05-27 19:15:00,
2013-05-27 15:30:00,52.9,46.0,30.09,South,187,3.0,7.0,76,0.00,,,0.01,weatherlink.com 1.10,2013-05-27 19:30:00,
2013-05-27 15:45:00,53.0,46.0,30.08,SE,141,1.0,5.0,77,0.00,,,0.01,weatherlink.com 1.10,2013-05-27 19:45:00,
2013-05-27 16:00:00,53.2,47.0,30.08,NE,48,4.0,11.0,78,0.00,,,0.01,weatherlink.com 1.10,2013-05-27 20:00:00,
2013-05-27 16:15:00,53.1,46.0,30.07,SE,132,2.0,7.0,78,0.00,,,0.01,weatherlink.com 1.10,2013-05-27 20:15:00,
2013-05-27 16:30:00,53.1,47.0,30.06,SE,145,1.0,8.0,79,0.01,,,0.02,weatherlink.com 1.10,2013-05-27 20:30:00,
2013-05-27 16:45:00,52.8,46.0,30.06,SW,217,2.0,8.0,78,0.01,,,0.02,weatherlink.com 1.10,2013-05-27 20:45:00,
2013-05-27 17:00:00,52.1,45.0,30.05,SE,129,2.0,8.0,76,0.02,,,0.03,weatherlink.com 1.10,2013-05-27 21:00:00,
2013-05-27 17:15:00,51.5,44.0,30.05,NE,56,0.0,5.0,75,0.05,,,0.06,weatherlink.com 1.10,2013-05-27 21:15:00,
2013-05-27 17:30:00,51.5,43.0,30.04,ESE,107,0.0,4.0,74,0.04,,,0.06,weatherlink.com 1.10,2013-05-27 21:30:00,
2013-05-27 17:45:00,51.5,43.0,30.03,ENE,60,2.0,3.0,74,0.05,,,0.07,weatherlink.com 1.10,2013-05-27 21:45:00,
2013-05-27 18:00:00,51.4,43.0,30.03,ESE,102,1.0,5.0,74,0.04,,,0.07,weatherlink.com 1.10,2013-05-27 22:00:00,
2013-05-27 18:16:00,51.4,43.0,30.02,East,90,1.0,5.0,74,0.02,,,0.08,weatherlink.com 1.10,2013-05-27 22:16:00,
2013-05-27 18:31:00,51.4,43.0,30.01,East,99,1.0,5.0,74,0.03,,,0.09,weatherlink.com 1.10,2013-05-27 22:31:00,
2013-05-27 18:46:00,51.5,43.0,30.01,ESE,121,0.0,4.0,74,0.02,,,0.09,weatherlink.com 1.10,2013-05-27 22:46:00,
2013-05-27 19:01:00,51.5,43.0,30.00,ENE,67,1.0,5.0,74,0.02,,,0.09,weatherlink.com 1.10,2013-05-27 23:01:00,
2013-05-27 19:16:00,51.5,43.0,29.99,NNW,332,1.0,7.0,74,0.01,,,0.09,weatherlink.com 1.10,2013-05-27 23:16:00,
2013-05-27 19:32:00,51.7,44.0,29.99,SSE,159,0.0,6.0,74,0.00,,,0.09,weatherlink.com 1.10,2013-05-27 23:32:00,
2013-05-27 19:46:00,51.8,44.0,29.99,SSW,201,1.0,6.0,74,0.00,,,0.09,weatherlink.com 1.10,2013-05-27 23:46:00,
2013-05-27 20:01:00,51.7,44.0,29.98,ENE,75,0.0,4.0,75,0.00,,,0.09,weatherlink.com 1.10,2013-05-28 00:01:00,
2013-05-27 20:16:00,51.7,44.0,29.98,ENE,62,2.0,5.0,75,0.00,,,0.09,weatherlink.com 1.10,2013-05-28 00:16:00,
2013-05-27 20:31:00,51.7,44.0,29.99,SE,129,2.0,4.0,75,0.00,,,0.09,weatherlink.com 1.10,2013-05-28 00:31:00,
2013-05-27 20:46:00,51.8,44.0,29.98,ESE,110,0.0,5.0,75,0.00,,,0.09,weatherlink.com 1.10,2013-05-28 00:46:00,
2013-05-27 21:01:00,51.9,44.0,29.98,ESE,117,1.0,2.0,74,0.00,,,0.09,weatherlink.com 1.10,2013-05-28 01:01:00,
2013-05-27 21:16:00,52.0,44.0,29.98,SE,134,1.0,2.0,75,0.00,,,0.09,weatherlink.com 1.10,2013-05-28 01:16:00,
2013-05-27 21:31:00,52.1,44.0,29.98,East,89,3.0,6.0,74,0.00,,,0.09,weatherlink.com 1.10,2013-05-28 01:31:00,
2013-05-27 21:46:00,52.2,45.0,29.97,ESE,109,1.0,3.0,75,0.00,,,0.09,weatherlink.com 1.10,2013-05-28 01:46:00,
2013-05-27 22:01:00,52.3,44.0,29.98,SSW,212,0.0,3.0,74,0.00,,,0.09,weatherlink.com 1.10,2013-05-28 02:01:00,
2013-05-27 22:16:00,52.3,45.0,29.98,East,100,0.0,2.0,75,0.00,,,0.09,weatherlink.com 1.10,2013-05-28 02:16:00,
2013-05-27 22:31:00,52.4,45.0,29.97,East,80,1.0,3.0,75,0.00,,,0.09,weatherlink.com 1.10,2013-05-28 02:31:00,
2013-05-27 22:46:00,52.4,45.0,29.97,SSE,166,0.0,4.0,75,0.00,,,0.09,weatherlink.com 1.10,2013-05-28 02:46:00,
2013-05-27 23:01:00,52.6,45.0,29.96,East,100,0.0,3.0,75,0.00,,,0.09,weatherlink.com 1.10,2013-05-28 03:01:00,
2013-05-27 23:16:00,52.6,45.0,29.96,ESE,122,0.0,2.0,75,0.00,,,0.09,weatherlink.com 1.10,2013-05-28 03:16:00,
2013-05-27 23:31:00,52.6,45.0,29.95,ESE,122,0.0,4.0,75,0.00,,,0.09,weatherlink.com 1.10,2013-05-28 03:31:00,
2013-05-27 23:46:00,52.5,45.0,29.95,ESE,121,0.0,5.0,75,0.00,,,0.09,weatherlink.com 1.10,2013-05-28 03:46:00,